Main page
METAR-TAF:

METAR-TAF

Airports :

Kunming Changshui International Airport

Kunming, China

latitude: 25-01N, longitude: 102-41E, elevation: 1892 m

Current weather observation

The report was made 18 minutes ago, at 00:00 UTC
Wind 2 kt from variable directions
Temperature 3°C
Humidity 100%
Pressure 1026 hPa
Visibility: 0700 m
fog

METAR: ZPPP 180000Z VRB01MPS 0700 R04/1800U R03/0800V1200D FG VV002 03/03 Q1026 BECMG TL0130 3100 BR

Time: 08:18 (00:18 UTC)

Forecast

The report was made 5 hours and 6 minutes ago, at 19:12 UTC
Forecast valid from 18 at 00 UTC to 18 at 24 UTC
Wind 8 kt from the Northeast
Visibility: 4000 m
Scattered clouds at a height of 200 ft
Overcast at a height of 2000 ft
mist
Becoming
from 18 at 03 UTC to 18 at 04 UTC
Wind 10 kt from the Southwest

TAF: ZPPP 171912Z 1800/1824 04004MPS 4000 BR SCT002 OVC020 TX13/1808Z TN01/1800Z BECMG 1803/1804 22005MPS

Weather observations and forecasts of more than 4000 airports (METAR and TAF reports).

The available stations are represented by yellow and red dots on the map.

Hover mouse over dot to see the name of the station.

Then click to see weather observations and forecasts.

To change the map : click on the green buttons with a black cross to zoom in, on the green button with a dash to zoom out, or on the green arrows for adjacent maps.


METAR-TAF: